This is the latest recevied weather packets stored in our database for station/object KC7UNY-13. If no packets are shown the sender has not sent any weather packets the latest 1 day(s).
| Time | Temp. | Humidity | Pressure | Rain* | Wind** | Luminosity | Snow |
|---|---|---|---|---|---|---|---|
| 1778079862 | 20.56° C | 39% | 1016.3 hPa | 0 mm | - | 254 W/m² | - |
| 1778078953 | 19.44° C | 42% | 1016.1 hPa | 0 mm | - | 208 W/m² | - |
| 1778078649 | 18.89° C | 41% | 1016 hPa | 0 mm | - | 195 W/m² | - |
| 1778078348 | 18.89° C | 41% | 1016.1 hPa | 0 mm | - | 181 W/m² | - |
| 1778076836 | 17.78° C | 43% | 1016 hPa | 0 mm | - | 123 W/m² | - |
| 1778076534 | 17.78° C | 44% | 1015.8 hPa | 0 mm | - | 112 W/m² | - |
| 1778075017 | 15.56° C | 48% | 1015.7 hPa | 0 mm | - | 67 W/m² | - |
| 1778074411 | 13.89° C | 51% | 1015.7 hPa | 0 mm | - | 47 W/m² | - |
| 1778073805 | 13.33° C | 52% | 1015.4 hPa | 0 mm | - | 25 W/m² | - |
| 1778072896 | 12.78° C | 57% | 1015.2 hPa | 0 mm | - | 18 W/m² | - |
| 1778071687 | 12.78° C | 54% | 1014.8 hPa | 0 mm | - | 8 W/m² | - |
| 1778070173 | 13.33° C | 53% | 1014.6 hPa | 0 mm | - | 0 W/m² | - |
| 1778069871 | 13.33° C | 53% | 1014.5 hPa | 0 mm | - | 0 W/m² | - |
| 1778069568 | 12.78° C | 53% | 1014.7 hPa | 0 mm | - | 0 W/m² | - |
| 1778069265 | 12.78° C | 54% | 1014.5 hPa | 0 mm | - | 0 W/m² | - |
| 1778068963 | 13.33° C | 53% | 1014.7 hPa | 0 mm | - | 0 W/m² | - |
| 1778068056 | 13.33° C | 53% | 1014.4 hPa | 0 mm | - | 0 W/m² | - |
| 1778066240 | 13.33° C | 54% | 1014.3 hPa | 0 mm | - | 0 W/m² | - |
| 1778065634 | 13.33° C | 55% | 1014.2 hPa | 0 mm | - | 0 W/m² | - |
| 1778064424 | 13.33° C | 56% | 1014.4 hPa | 0 mm | - | 0 W/m² | - |
| 1778064121 | 13.33° C | 57% | 1014.2 hPa | 0 mm | - | 0 W/m² | - |
| 1778063818 | 13.89° C | 56% | 1014.3 hPa | 0 mm | - | 0 W/m² | - |
| 1778063515 | 13.89° C | 57% | 1014.1 hPa | 0 mm | - | 0 W/m² | - |
| 1778063213 | 13.89° C | 57% | 1014.2 hPa | 0 mm | - | 0 W/m² | - |
| 1778062910 | 13.89° C | 58% | 1014 hPa | 0 mm | - | 0 W/m² | - |
* Rain latest hour (hover to see other rain measurements)
** Current wind speed in m/s (hover to see current wind gust speed)